Time;durP1;ratioP1;P1;durP2;ratioP2;P2;SDS_P1;SDS_P2;PMS_P1;PMS_P2;Temp;Humidity;BMP_temperature;BMP_pressure;BME280_temperature;BME280_humidity;BME280_pressure;Samples;Min_cycle;Max_cycle;Signal;HPM_P1;HPM_P2
2021/01/03 00:00:28;;;;;;;29.17;23.05;;;;;;;19.29;43.35;100825.97;5014690;28;20053;-71
2021/01/03 00:02:54;;;;;;;37.80;24.02;;;;;;;19.34;43.11;100822.16;5034718;28;20143;-71
2021/01/03 00:05:25;;;;;;;35.83;24.70;;;;;;;19.34;43.20;100826.63;5021808;28;20131;-70
2021/01/03 00:07:50;;;;;;;31.67;21.90;;;;;;;19.36;43.25;100829.22;5024721;28;20051;-71
2021/01/03 00:10:17;;;;;;;30.38;22.02;;;;;;;19.35;43.23;100825.72;5035612;28;20136;-70
2021/01/03 00:12:43;;;;;;;30.75;22.40;;;;;;;19.37;43.24;100826.47;5036124;28;20432;-71
2021/01/03 00:15:18;;;;;;;28.95;22.17;;;;;;;19.38;42.80;100832.69;5034236;28;20048;-71
2021/01/03 00:17:44;;;;;;;31.48;22.60;;;;;;;19.34;43.26;100832.78;5035261;28;20458;-70
2021/01/03 00:20:15;;;;;;;30.88;20.42;;;;;;;19.38;42.93;100828.22;5033728;28;20127;-71
2021/01/03 00:22:40;;;;;;;29.33;21.27;;;;;;;19.39;42.86;100824.66;5036734;28;20090;-71
2021/01/03 00:25:08;;;;;;;28.80;19.77;;;;;;;19.41;42.88;100829.88;5037685;28;20049;-71
2021/01/03 00:27:35;;;;;;;25.95;20.33;;;;;;;19.42;43.01;100829.81;5016521;28;20151;-71
2021/01/03 00:30:01;;;;;;;25.02;20.25;;;;;;;19.39;42.56;100835.25;5032353;28;20044;-71
2021/01/03 00:32:26;;;;;;;26.05;21.20;;;;;;;19.39;42.84;100829.94;5021980;28;20037;-71
2021/01/03 00:34:52;;;;;;;26.45;20.30;;;;;;;19.42;42.32;100831.63;5037296;28;20095;-71
2021/01/03 00:37:21;;;;;;;27.92;21.85;;;;;;;19.40;42.77;100830.81;5001800;28;20148;-71
2021/01/03 00:39:49;;;;;;;26.33;21.20;;;;;;;19.41;42.53;100827.22;5017793;28;20056;-71
2021/01/03 00:42:17;;;;;;;25.85;20.25;;;;;;;19.39;42.26;100816.69;5034849;28;20033;-71
2021/01/03 00:44:43;;;;;;;26.23;19.83;;;;;;;19.42;42.36;100827.16;5018408;28;20167;-71
2021/01/03 00:47:09;;;;;;;27.38;19.85;;;;;;;19.38;42.96;100825.56;5037096;28;20139;-71
2021/01/03 00:49:35;;;;;;;27.63;19.27;;;;;;;19.38;42.77;100822.91;5033749;28;20580;-72
2021/01/03 00:52:02;;;;;;;28.50;20.13;;;;;;;19.40;42.30;100818.41;5036104;28;20045;-71
2021/01/03 00:54:27;;;;;;;26.08;19.58;;;;;;;19.41;42.68;100821.91;5020413;28;20029;-71
2021/01/03 00:56:53;;;;;;;25.38;20.10;;;;;;;19.39;42.54;100821.13;5035253;28;20037;-71
2021/01/03 00:59:20;;;;;;;26.95;20.33;;;;;;;19.40;42.44;100823.72;5019788;28;20648;-71
2021/01/03 01:01:45;;;;;;;23.08;18.80;;;;;;;19.41;42.26;100819.25;5036745;28;20041;-71
2021/01/03 01:04:11;;;;;;;26.60;18.35;;;;;;;19.42;42.45;100824.50;5023350;28;20956;-71
2021/01/03 01:06:37;;;;;;;22.60;18.27;;;;;;;19.41;42.46;100835.19;5037732;28;20175;-71
2021/01/03 01:09:03;;;;;;;21.13;18.23;;;;;;;19.39;42.70;100827.28;5036828;28;20127;-71
2021/01/03 01:11:29;;;;;;;26.20;18.23;;;;;;;19.41;42.36;100825.44;5022149;28;20124;-69
2021/01/03 01:13:55;;;;;;;22.95;18.15;;;;;;;19.41;42.50;100822.78;5035615;28;20040;-71
2021/01/03 01:16:22;;;;;;;23.05;18.58;;;;;;;19.41;42.40;100827.22;5037095;28;20232;-71
2021/01/03 01:18:47;;;;;;;23.27;17.80;;;;;;;19.41;42.54;100830.75;5019021;28;20456;-72
2021/01/03 01:21:13;;;;;;;18.80;16.25;;;;;;;19.42;42.50;100823.66;5017772;28;20044;-70
2021/01/03 01:23:38;;;;;;;22.65;18.70;;;;;;;19.43;42.52;100825.38;5039416;28;20045;-71
2021/01/03 01:26:04;;;;;;;26.55;18.65;;;;;;;19.40;42.43;100826.38;5036023;28;20040;-71
2021/01/03 01:28:30;;;;;;;23.05;18.67;;;;;;;19.41;42.19;100825.44;5040752;28;20258;-71
2021/01/03 01:30:57;;;;;;;20.98;17.45;;;;;;;19.42;42.18;100821.00;5036969;28;20780;-71
2021/01/03 01:33:24;;;;;;;20.80;16.27;;;;;;;19.40;42.13;100818.41;5024125;28;20037;-71
2021/01/03 01:35:50;;;;;;;20.77;16.52;;;;;;;19.40;42.17;100823.72;5039755;28;20041;-71
2021/01/03 01:38:15;;;;;;;21.55;16.65;;;;;;;19.40;42.30;100822.84;5036387;28;20115;-71
2021/01/03 01:40:43;;;;;;;21.23;16.25;;;;;;;19.42;42.07;100823.66;5034445;28;20045;-71
2021/01/03 01:43:13;;;;;;;21.35;17.33;;;;;;;19.40;42.16;100820.19;5019285;28;20048;-71
2021/01/03 01:45:42;;;;;;;19.33;16.60;;;;;;;19.39;42.43;100829.94;5040119;28;20418;-71
2021/01/03 01:48:17;;;;;;;21.75;16.38;;;;;;;19.42;42.33;100826.31;5020145;28;20037;-71
2021/01/03 01:50:54;;;;;;;19.73;15.63;;;;;;;19.42;42.20;100823.66;5033646;28;20029;-70
2021/01/03 01:53:32;;;;;;;21.10;17.45;;;;;;;19.41;42.24;100825.44;5040901;28;20037;-71
2021/01/03 01:56:17;;;;;;;18.42;15.27;;;;;;;19.40;42.40;100823.72;5022598;28;20045;-71
2021/01/03 01:59:03;;;;;;;23.88;16.75;;;;;;;19.39;42.24;100826.44;5036947;28;20029;-71
2021/01/03 02:01:59;;;;;;;18.67;16.70;;;;;;;19.37;42.29;100820.31;5031914;28;20029;-71
2021/01/03 02:04:41;;;;;;;17.35;15.35;;;;;;;19.37;41.98;100821.19;5038523;28;20047;-71
2021/01/03 02:07:22;;;;;;;18.25;15.13;;;;;;;19.36;42.43;100822.13;5038397;28;20112;-70
2021/01/03 02:10:09;;;;;;;19.20;15.85;;;;;;;19.33;42.37;100819.59;5037564;28;20099;-71
2021/01/03 02:12:41;;;;;;;17.42;13.95;;;;;;;19.38;42.81;100822.91;5037891;28;20067;-71
2021/01/03 02:15:18;;;;;;;20.83;15.85;;;;;;;19.37;42.11;100825.63;5033873;28;20037;-70
2021/01/03 02:17:45;;;;;;;17.80;15.15;;;;;;;19.35;42.36;100823.06;5037321;28;20099;-70
2021/01/03 02:20:14;;;;;;;17.25;15.45;;;;;;;19.32;42.60;100818.75;5003411;28;20041;-70
2021/01/03 02:22:48;;;;;;;17.33;14.27;;;;;;;19.36;42.24;100823.91;5055037;28;20037;-71
2021/01/03 02:25:17;;;;;;;17.45;15.00;;;;;;;19.38;42.34;100822.06;5034997;28;20415;-71
2021/01/03 02:28:15;;;;;;;18.10;14.65;;;;;;;19.32;42.44;100816.09;5036660;28;20033;-71
2021/01/03 02:30:48;;;;;;;21.33;14.27;;;;;;;19.33;42.33;100812.50;5036687;28;20040;-71
2021/01/03 02:33:36;;;;;;;18.42;14.35;;;;;;;19.30;42.76;100801.16;5016729;28;20045;-72
2021/01/03 02:36:29;;;;;;;16.88;13.98;;;;;;;19.31;42.55;100802.88;5021221;28;20029;-71
2021/01/03 02:39:27;;;;;;;20.33;15.67;;;;;;;19.32;42.22;100805.47;5035216;28;20558;-71
2021/01/03 02:41:57;;;;;;;16.17;13.57;;;;;;;19.31;42.15;100803.72;5035545;28;20047;-71
2021/01/03 02:44:23;;;;;;;15.40;13.10;;;;;;;19.30;41.86;100802.00;5034112;28;20033;-71
2021/01/03 02:46:54;;;;;;;16.52;12.98;;;;;;;19.33;42.18;100793.03;5035301;28;20403;-71
2021/01/03 02:49:22;;;;;;;14.85;12.98;;;;;;;19.34;41.82;100792.97;5036844;28;20398;-71
2021/01/03 02:51:47;;;;;;;16.50;12.88;;;;;;;19.31;42.05;100787.81;5035487;28;20033;-71
2021/01/03 02:54:13;;;;;;;15.30;12.77;;;;;;;19.34;41.83;100778.84;5038062;28;20341;-70
2021/01/03 02:56:38;;;;;;;15.60;13.57;;;;;;;19.32;41.96;100786.00;5038298;28;20083;-71
2021/01/03 02:59:04;;;;;;;14.77;13.10;;;;;;;19.28;42.27;100780.00;5019807;28;20045;-71
2021/01/03 03:01:30;;;;;;;16.13;12.55;;;;;;;19.31;42.33;100784.31;5035139;28;20106;-71
2021/01/03 03:03:56;;;;;;;17.30;13.82;;;;;;;19.29;42.17;100792.31;5035207;28;20475;-71
2021/01/03 03:06:22;;;;;;;13.77;12.23;;;;;;;19.29;42.03;100792.31;5038240;28;20067;-71
2021/01/03 03:08:47;;;;;;;13.25;11.57;;;;;;;19.29;41.93;100791.47;5035729;28;20045;-71
2021/01/03 03:11:13;;;;;;;14.30;12.10;;;;;;;19.29;42.09;100789.66;5021766;28;20085;-71
2021/01/03 03:13:39;;;;;;;14.00;12.15;;;;;;;19.33;41.87;100790.38;5017079;28;20052;-71
2021/01/03 03:16:05;;;;;;;15.57;12.60;;;;;;;19.30;41.81;100787.88;5035895;28;20296;-71
2021/01/03 03:18:31;;;;;;;14.40;12.43;;;;;;;19.32;41.52;100789.53;5036869;28;20059;-71
2021/01/03 03:20:57;;;;;;;13.38;11.20;;;;;;;19.30;41.74;100790.53;5035697;28;20521;-71
2021/01/03 03:23:22;;;;;;;13.35;11.90;;;;;;;19.31;41.91;100795.78;5039438;28;20033;-71
2021/01/03 03:25:48;;;;;;;13.43;12.02;;;;;;;19.31;41.67;100782.50;5035828;28;20330;-71
2021/01/03 03:28:16;;;;;;;14.30;11.52;;;;;;;19.35;41.98;100785.88;5034828;28;20049;-71
2021/01/03 03:30:43;;;;;;;13.82;12.00;;;;;;;19.34;41.99;100784.16;5034203;28;20037;-71
2021/01/03 03:33:09;;;;;;;15.75;12.35;;;;;;;19.33;42.09;100787.75;5035993;28;20073;-71
2021/01/03 03:35:37;;;;;;;12.70;10.88;;;;;;;19.33;42.04;100790.38;5037147;28;20041;-70
2021/01/03 03:38:05;;;;;;;13.82;11.77;;;;;;;19.33;41.89;100785.97;5033182;28;20049;-70
2021/01/03 03:40:32;;;;;;;13.65;11.85;;;;;;;19.33;41.98;100788.63;5034069;28;20063;-71
2021/01/03 03:42:58;;;;;;;13.07;11.00;;;;;;;19.31;41.83;100781.66;5020183;28;20561;-71
2021/01/03 03:45:23;;;;;;;11.98;10.70;;;;;;;19.32;42.00;100786.00;5037125;28;20037;-71
2021/01/03 03:47:50;;;;;;;11.85;10.57;;;;;;;19.32;42.07;100791.31;5037772;28;20033;-70
2021/01/03 03:50:21;;;;;;;11.38;10.07;;;;;;;19.33;41.89;100783.31;5019847;28;20045;-71
2021/01/03 03:52:46;;;;;;;14.48;12.70;;;;;;;19.36;42.05;100781.44;5027118;28;20129;-71
2021/01/03 03:55:13;;;;;;;10.82;9.73;;;;;;;19.34;41.90;100782.34;5036625;28;20746;-71
2021/01/03 03:57:39;;;;;;;12.43;10.20;;;;;;;19.34;42.07;100781.50;5034252;28;20052;-70
2021/01/03 04:00:16;;;;;;;12.02;10.00;;;;;;;19.29;41.98;100783.50;5036598;28;20522;-71
2021/01/03 04:02:45;;;;;;;11.57;10.05;;;;;;;19.33;42.06;100787.75;5039095;28;20120;-70
2021/01/03 04:05:18;;;;;;;12.88;10.05;;;;;;;19.36;41.79;100784.09;5005580;28;20024;-70
2021/01/03 04:07:44;;;;;;;13.17;11.10;;;;;;;19.32;41.99;100781.56;5035738;28;20053;-70
2021/01/03 04:10:11;;;;;;;11.02;9.82;;;;;;;19.33;41.53;100788.63;5035865;28;20029;-71
2021/01/03 04:12:37;;;;;;;11.82;9.55;;;;;;;19.28;41.51;100780.00;5019852;28;20111;-70
2021/01/03 04:15:08;;;;;;;10.18;8.95;;;;;;;19.35;41.61;100780.59;5038116;28;20060;-71
2021/01/03 04:17:34;;;;;;;10.27;9.27;;;;;;;19.28;41.71;100774.69;5037944;28;20025;-71
2021/01/03 04:20:00;;;;;;;10.50;9.05;;;;;;;19.36;41.62;100778.78;5032843;28;20071;-70
2021/01/03 04:22:30;;;;;;;12.55;9.50;;;;;;;19.33;41.38;100782.44;5038020;28;20044;-71
2021/01/03 04:24:58;;;;;;;10.55;9.50;;;;;;;19.33;41.75;100785.97;5038716;28;20029;-71
2021/01/03 04:27:24;;;;;;;10.95;9.77;;;;;;;19.37;41.72;100784.00;5036021;28;20172;-71
2021/01/03 04:29:50;;;;;;;9.80;8.80;;;;;;;19.38;41.71;100785.75;5037974;28;20186;-71
2021/01/03 04:32:16;;;;;;;12.73;9.13;;;;;;;19.32;41.56;100784.22;5038052;28;20472;-71
2021/01/03 04:34:42;;;;;;;11.13;9.18;;;;;;;19.38;41.60;100790.22;5038739;28;20071;-71
2021/01/03 04:37:09;;;;;;;11.88;9.35;;;;;;;19.35;41.61;100785.88;5039272;28;20032;-71
2021/01/03 04:39:36;;;;;;;10.43;9.40;;;;;;;19.33;41.61;100793.94;5036701;28;20033;-70
2021/01/03 04:42:06;;;;;;;10.95;8.48;;;;;;;19.36;41.71;100802.66;5039163;28;20059;-71
2021/01/03 04:44:39;;;;;;;9.88;8.80;;;;;;;19.32;41.49;100797.50;5039082;28;20052;-71
2021/01/03 04:47:22;;;;;;;9.75;8.75;;;;;;;19.31;41.52;100793.13;5040048;28;20044;-71
2021/01/03 04:49:59;;;;;;;9.13;7.90;;;;;;;19.33;41.45;100793.03;5022672;28;20036;-71
2021/01/03 04:52:49;;;;;;;9.65;8.68;;;;;;;19.37;41.43;100797.28;5035915;28;20137;-70
2021/01/03 04:55:31;;;;;;;10.20;8.75;;;;;;;19.36;41.36;100789.41;5040669;28;20025;-71
2021/01/03 04:58:17;;;;;;;9.32;8.45;;;;;;;19.35;41.30;100791.19;5019877;28;20033;-71
2021/01/03 05:01:21;;;;;;;10.20;9.10;;;;;;;19.36;41.42;100794.69;5038497;28;20172;-71
2021/01/03 05:04:02;;;;;;;;;;;;;;;19.36;41.49;100800.00;5037511;28;20470;-71
2021/01/03 05:06:28;;;;;;;9.50;8.50;;;;;;;19.39;41.26;100798.09;5021911;28;19912;-71
2021/01/03 05:09:05;;;;;;;11.40;8.15;;;;;;;19.36;41.40;100800.91;5037603;28;20783;-71
2021/01/03 05:12:04;;;;;;;9.90;8.00;;;;;;;19.32;41.54;100805.47;5038849;28;20543;-71
2021/01/03 05:14:40;;;;;;;10.98;9.18;;;;;;;19.33;41.65;100804.53;5031672;28;20063;-71
2021/01/03 05:17:06;;;;;;;9.23;8.10;;;;;;;19.33;41.48;100793.94;5035824;28;20060;-71
2021/01/03 05:19:31;;;;;;;9.05;8.15;;;;;;;19.36;41.74;100805.31;5038685;28;20045;-71
2021/01/03 05:21:57;;;;;;;7.95;7.20;;;;;;;19.34;41.39;100805.41;5037088;28;20715;-70
2021/01/03 05:24:26;;;;;;;8.10;7.25;;;;;;;19.38;41.47;100801.69;5040986;28;20041;-71
2021/01/03 05:26:53;;;;;;;8.95;8.05;;;;;;;19.40;41.54;100799.81;5027397;28;20133;-70
2021/01/03 05:29:29;;;;;;;8.65;7.75;;;;;;;19.40;41.34;100807.78;5038629;28;20095;-71
2021/01/03 05:32:03;;;;;;;10.68;7.70;;;;;;;19.40;41.69;100805.13;5003175;28;20040;-70
2021/01/03 05:34:36;;;;;;;9.10;8.25;;;;;;;19.41;41.34;100812.19;5037401;28;20250;-71
2021/01/03 05:37:13;;;;;;;8.75;7.30;;;;;;;19.39;41.37;100816.69;5020304;28;20068;-70
2021/01/03 05:39:41;;;;;;;8.88;7.40;;;;;;;19.41;41.79;100808.63;5033200;28;20045;-71
2021/01/03 05:42:25;;;;;;;8.65;7.68;;;;;;;19.39;41.26;100807.88;5021639;28;20044;-71
2021/01/03 05:45:23;;;;;;;8.48;7.63;;;;;;;19.34;41.48;100808.06;5037648;28;20123;-71
2021/01/03 05:47:58;;;;;;;8.40;7.60;;;;;;;19.38;41.51;100809.63;5035749;28;20032;-71
2021/01/03 05:50:41;;;;;;;8.52;7.72;;;;;;;19.39;41.37;100810.53;5035781;28;20423;-71
2021/01/03 05:53:22;;;;;;;8.77;7.80;;;;;;;19.41;41.28;100809.53;5041347;28;20044;-70
2021/01/03 05:56:04;;;;;;;9.35;7.32;;;;;;;19.39;41.33;100806.06;5040121;28;20037;-70
2021/01/03 05:58:41;;;;;;;8.82;7.93;;;;;;;19.39;41.57;100816.69;5007210;28;20037;-71
2021/01/03 06:01:26;;;;;;;8.18;7.38;;;;;;;19.41;41.21;100816.59;5037956;28;20033;-70
2021/01/03 06:04:23;;;;;;;8.38;7.53;;;;;;;19.40;41.52;100813.09;5034560;28;20040;-70
2021/01/03 06:06:51;;;;;;;8.98;7.07;;;;;;;19.36;41.45;100821.25;5039544;28;20115;-70
2021/01/03 06:09:21;;;;;;;8.27;7.47;;;;;;;19.37;41.78;100820.31;5034624;28;20068;-70
2021/01/03 06:12:05;;;;;;;7.75;7.05;;;;;;;19.39;41.51;100824.66;5052574;28;20091;-70
2021/01/03 06:14:31;;;;;;;8.55;7.78;;;;;;;19.40;41.40;100823.72;5035087;28;20056;-70
2021/01/03 06:17:12;;;;;;;8.70;7.60;;;;;;;19.39;41.12;100819.34;5035750;28;20490;-70
2021/01/03 06:19:47;;;;;;;8.15;7.38;;;;;;;19.40;41.35;100825.50;5038537;28;20065;-70
2021/01/03 06:22:35;;;;;;;8.00;7.13;;;;;;;19.38;41.25;100816.75;5003261;28;20044;-70
2021/01/03 06:25:13;;;;;;;8.05;7.25;;;;;;;19.39;41.46;100826.44;5039063;28;20088;-71
2021/01/03 06:27:39;;;;;;;8.82;7.70;;;;;;;19.39;41.27;100821.97;5019609;28;20045;-70
2021/01/03 06:30:13;;;;;;;8.30;7.50;;;;;;;19.43;41.22;100828.88;5039487;28;20136;-70
2021/01/03 06:33:08;;;;;;;9.75;7.30;;;;;;;19.44;41.21;100824.47;5037150;28;20397;-70
2021/01/03 06:36:05;;;;;;;8.85;7.90;;;;;;;19.43;41.47;100825.38;5037388;28;20744;-70
2021/01/03 06:38:30;;;;;;;7.90;7.20;;;;;;;19.43;41.25;100823.56;5028725;28;20484;-71
2021/01/03 06:40:59;;;;;;;8.13;7.18;;;;;;;19.38;41.08;100820.25;5034135;28;20041;-71
2021/01/03 06:44:02;;;;;;;7.70;7.00;;;;;;;19.39;41.41;100824.66;5038555;28;20058;-70
2021/01/03 06:47:08;;;;;;;8.68;7.85;;;;;;;19.40;41.11;100823.72;5035875;28;20785;-70
2021/01/03 06:50:17;;;;;;;8.00;7.20;;;;;;;19.41;40.85;100824.56;5037766;28;20042;-71
2021/01/03 06:53:22;;;;;;;9.23;8.18;;;;;;;19.38;40.95;100819.41;5034312;28;20516;-71
2021/01/03 06:56:14;;;;;;;7.43;6.70;;;;;;;19.37;40.63;100815.03;5037831;28;20534;-71
2021/01/03 06:59:21;;;;;;;7.90;7.10;;;;;;;19.37;40.70;100828.28;5033635;28;20387;-71
2021/01/03 07:01:48;;;;;;;7.40;6.70;;;;;;;19.39;40.80;100821.13;5036371;28;20047;-71
2021/01/03 07:04:37;;;;;;;8.40;7.57;;;;;;;19.39;40.78;100824.66;5021177;28;20033;-70
2021/01/03 07:07:15;;;;;;;8.48;7.63;;;;;;;19.39;41.13;100826.44;5037681;28;20132;-71
2021/01/03 07:10:10;;;;;;;7.22;6.53;;;;;;;19.38;40.47;100830.88;5019604;28;20111;-71
2021/01/03 07:12:43;;;;;;;7.65;6.43;;;;;;;19.34;40.94;100830.13;5036244;28;20057;-72
2021/01/03 07:15:34;;;;;;;8.07;7.28;;;;;;;19.37;40.43;100831.78;5003695;28;20029;-71
2021/01/03 07:18:19;;;;;;;8.20;7.40;;;;;;;19.38;40.92;100830.88;5052717;28;20132;-71
2021/01/03 07:21:03;;;;;;;7.90;6.70;;;;;;;19.38;41.02;100833.53;5033134;28;20057;-71
2021/01/03 07:23:35;;;;;;;7.28;6.65;;;;;;;19.38;40.79;100833.53;5035931;28;20087;-71
2021/01/03 07:26:19;;;;;;;6.93;6.32;;;;;;;19.39;40.61;100839.72;5030047;28;20037;-72
2021/01/03 07:28:59;;;;;;;7.32;6.63;;;;;;;19.38;40.76;100827.38;5032791;28;20039;-72
2021/01/03 07:31:33;;;;;;;7.03;6.32;;;;;;;19.37;40.71;100829.13;5037434;28;20047;-72
2021/01/03 07:34:06;;;;;;;8.70;7.70;;;;;;;19.39;40.67;100832.59;5038304;28;20070;-72
2021/01/03 07:37:12;;;;;;;6.88;6.20;;;;;;;19.38;40.52;100828.22;5020562;28;20379;-72
2021/01/03 07:40:20;;;;;;;7.25;6.50;;;;;;;19.34;40.13;100834.59;5004541;28;20033;-72
2021/01/03 07:42:45;;;;;;;7.68;6.55;;;;;;;19.36;40.47;100842.50;5027809;28;20045;-72
2021/01/03 07:45:14;;;;;;;7.53;6.72;;;;;;;19.35;40.33;100833.66;5036538;28;20383;-72
2021/01/03 07:47:47;;;;;;;7.30;6.57;;;;;;;19.35;40.54;100833.66;5035116;28;20043;-71
2021/01/03 07:50:30;;;;;;;7.50;6.80;;;;;;;19.32;40.64;100831.13;5036729;28;20083;-72
2021/01/03 07:53:29;;;;;;;6.22;5.63;;;;;;;19.37;40.11;100830.94;5034115;28;20094;-72
2021/01/03 07:56:18;;;;;;;7.00;6.30;;;;;;;19.30;39.91;100840.97;5038282;28;20040;-71
2021/01/03 07:58:55;;;;;;;7.35;6.60;;;;;;;19.28;40.56;100833.06;5033369;28;20079;-72
2021/01/03 08:01:28;;;;;;;6.45;5.85;;;;;;;19.27;40.52;100831.34;5035219;28;20076;-72
2021/01/03 08:03:53;;;;;;;7.10;6.38;;;;;;;19.27;41.32;100843.75;5035673;28;20048;-72
2021/01/03 08:06:19;;;;;;;7.22;6.47;;;;;;;19.22;41.53;100835.13;5035092;28;20036;-72
2021/01/03 08:08:55;;;;;;;6.22;5.70;;;;;;;19.27;41.37;100838.44;5017850;28;20095;-72
2021/01/03 08:11:28;;;;;;;6.13;5.57;;;;;;;19.28;41.02;100834.84;5014167;28;20168;-72
2021/01/03 08:14:03;;;;;;;6.05;5.47;;;;;;;19.29;41.59;100837.44;5034469;28;20033;-72
2021/01/03 08:16:30;;;;;;;7.55;5.97;;;;;;;19.31;41.64;100840.03;5035128;28;20064;-75
2021/01/03 08:19:05;;;;;;;7.65;5.70;;;;;;;19.40;40.98;100842.31;5020719;28;20050;-72
2021/01/03 08:21:35;;;;;;;8.32;6.10;;;;;;;19.38;40.47;100838.84;5032533;28;20037;-73
2021/01/03 08:24:15;;;;;;;7.55;5.93;;;;;;;19.42;40.09;100843.06;5034454;28;20488;-74
2021/01/03 08:26:51;;;;;;;8.75;6.35;;;;;;;19.39;40.03;100840.56;5034739;28;20037;-72
2021/01/03 08:29:30;;;;;;;7.25;5.97;;;;;;;19.40;39.94;100836.09;5016236;28;20512;-72
2021/01/03 08:32:00;;;;;;;6.72;5.90;;;;;;;19.34;39.96;100829.28;5036554;28;20039;-73
2021/01/03 08:34:36;;;;;;;6.43;5.82;;;;;;;19.38;40.34;100830.88;5034139;28;20106;-72
2021/01/03 08:37:14;;;;;;;6.88;5.75;;;;;;;19.39;40.13;100832.59;5032833;28;20053;-73
2021/01/03 08:39:39;;;;;;;7.45;6.30;;;;;;;19.40;39.65;100841.41;5019025;28;20068;-73
2021/01/03 08:42:12;;;;;;;8.38;7.05;;;;;;;19.32;33.03;100833.78;5035706;28;20748;-70
2021/01/03 08:44:50;;;;;;;13.02;9.68;;;;;;;19.09;29.57;100834.78;5018807;28;20041;-69
2021/01/03 08:47:35;;;;;;;12.85;8.43;;;;;;;18.87;28.57;100837.41;5016055;28;20039;-68
2021/01/03 08:50:10;;;;;;;9.55;7.07;;;;;;;18.78;34.97;100843.94;5000470;28;20033;-70
2021/01/03 08:52:36;;;;;;;7.93;6.50;;;;;;;18.84;37.25;100852.53;5033854;28;20052;-72
2021/01/03 08:55:18;;;;;;;18.83;7.05;;;;;;;18.83;37.96;100848.13;5020566;28;20052;-73
2021/01/03 08:57:53;;;;;;;12.15;6.45;;;;;;;18.85;39.29;100848.94;5016778;28;20049;-71
2021/01/03 09:00:23;;;;;;;17.77;6.35;;;;;;;18.88;39.50;100837.34;5031311;28;20538;-71
2021/01/03 09:02:55;;;;;;;11.80;6.57;;;;;;;18.92;40.14;100843.44;5002212;28;20037;-71
2021/01/03 09:05:24;;;;;;;11.90;5.88;;;;;;;18.96;39.27;100847.69;5019940;28;20040;-70
2021/01/03 09:07:52;;;;;;;9.30;5.22;;;;;;;18.98;39.73;100846.69;5031220;28;20045;-71
2021/01/03 09:10:41;;;;;;;8.55;5.63;;;;;;;19.00;41.28;100851.94;5029658;28;20049;-71
2021/01/03 09:13:20;;;;;;;9.60;5.60;;;;;;;18.99;40.82;100844.91;5000709;28;20033;-71
2021/01/03 09:16:12;;;;;;;14.02;4.97;;;;;;;18.98;40.54;100846.69;5034274;28;20378;-71
2021/01/03 09:19:04;;;;;;;13.73;5.85;;;;;;;19.01;40.93;100851.88;5037589;28;20045;-71
2021/01/03 09:21:30;;;;;;;10.25;5.28;;;;;;;19.03;40.75;100851.78;5018144;28;20040;-71
2021/01/03 09:24:05;;;;;;;11.05;5.38;;;;;;;19.04;40.60;100857.97;5015319;28;20325;-72
2021/01/03 09:26:41;;;;;;;6.65;5.07;;;;;;;19.02;40.93;100858.06;5037862;28;20048;-71
2021/01/03 09:29:12;;;;;;;11.38;4.53;;;;;;;19.01;41.13;100856.31;5035679;28;20114;-71
2021/01/03 09:32:29;;;;;;;7.15;5.38;;;;;;;19.03;40.96;100856.25;5040253;28;20479;-71
2021/01/03 09:35:45;;;;;;;8.98;4.95;;;;;;;19.04;41.10;100852.69;5020183;28;20087;-71
2021/01/03 09:38:39;;;;;;;7.10;4.65;;;;;;;19.06;40.82;100848.16;5039802;28;20133;-71
2021/01/03 09:41:23;;;;;;;7.43;4.68;;;;;;;19.04;41.27;100856.19;5033855;28;20708;-71
2021/01/03 09:44:03;;;;;;;7.30;5.25;;;;;;;19.01;41.24;100854.50;5038343;28;20064;-71
2021/01/03 09:46:51;;;;;;;5.78;4.57;;;;;;;19.02;41.17;100844.78;5020668;28;20723;-71
2021/01/03 09:49:27;;;;;;;5.55;4.70;;;;;;;19.01;41.36;100846.56;5036634;28;20033;-71
2021/01/03 09:52:41;;;;;;;6.60;4.45;;;;;;;19.05;41.37;100849.94;5020099;28;20482;-72
2021/01/03 09:55:13;;;;;;;7.75;4.93;;;;;;;19.05;41.40;100855.25;4987820;28;20045;-72
2021/01/03 09:57:40;;;;;;;6.53;4.65;;;;;;;19.02;40.15;100842.13;5031157;28;20040;-71
2021/01/03 10:00:11;;;;;;;6.80;4.88;;;;;;;19.02;40.59;100847.44;5039082;28;20148;-72
2021/01/03 10:02:37;;;;;;;4.93;3.75;;;;;;;18.98;40.71;100844.03;5039482;28;20043;-72
2021/01/03 10:05:05;;;;;;;6.97;4.38;;;;;;;19.00;41.11;100842.16;5037173;28;20056;-72
2021/01/03 10:07:32;;;;;;;8.30;5.10;;;;;;;19.05;41.13;100841.16;5036004;28;20140;-71
2021/01/03 10:10:09;;;;;;;5.22;4.72;;;;;;;19.06;41.01;100841.06;5017989;28;20562;-72
2021/01/03 10:12:39;;;;;;;7.50;5.05;;;;;;;19.06;41.22;100840.19;5004399;28;20036;-73
2021/01/03 10:15:10;;;;;;;5.32;3.78;;;;;;;19.03;41.24;100835.88;5036145;28;20806;-72
2021/01/03 10:17:36;;;;;;;6.97;4.30;;;;;;;19.04;41.24;100834.97;5039191;28;20059;-72
2021/01/03 10:20:15;;;;;;;6.18;4.65;;;;;;;19.04;41.20;100837.59;5015732;28;21002;-72
2021/01/03 10:22:44;;;;;;;4.80;3.97;;;;;;;19.02;41.11;100828.88;5019749;28;20049;-72
2021/01/03 10:25:13;;;;;;;5.63;4.68;;;;;;;19.05;41.18;100822.56;5037611;28;20037;-72
2021/01/03 10:27:39;;;;;;;5.78;4.38;;;;;;;19.01;41.42;100825.34;5037839;28;20052;-72
2021/01/03 10:30:08;;;;;;;5.57;4.25;;;;;;;19.02;41.43;100820.91;5033285;28;20036;-71
2021/01/03 10:32:38;;;;;;;5.78;4.72;;;;;;;19.03;41.24;100821.75;5020145;28;20035;-73
2021/01/03 10:35:06;;;;;;;4.68;4.18;;;;;;;19.03;41.24;100819.97;5037619;28;21333;-73
2021/01/03 10:37:33;;;;;;;4.82;4.40;;;;;;;19.03;41.16;100814.66;5035039;28;20044;-72
2021/01/03 10:39:59;;;;;;;5.88;4.43;;;;;;;19.06;41.35;100811.88;5034125;28;20047;-72
2021/01/03 10:42:24;;;;;;;6.70;4.35;;;;;;;19.06;41.34;100814.53;5036103;28;20037;-73
2021/01/03 10:44:50;;;;;;;6.43;4.20;;;;;;;19.06;41.31;100814.53;5039092;28;20037;-72
2021/01/03 10:47:16;;;;;;;4.95;3.92;;;;;;;19.05;41.51;100815.47;5035734;28;20041;-74
2021/01/03 10:49:41;;;;;;;5.97;4.05;;;;;;;19.07;41.01;100818.03;5036003;28;20398;-72
2021/01/03 10:52:07;;;;;;;6.85;4.15;;;;;;;19.04;42.89;100816.38;5014676;28;20139;-75
2021/01/03 10:54:33;;;;;;;12.57;5.25;;;;;;;19.04;43.36;100816.38;5036362;28;20029;-75
2021/01/03 10:56:58;;;;;;;6.32;4.80;;;;;;;19.11;42.72;100804.59;5022229;28;20111;-76
2021/01/03 10:59:25;;;;;;;9.57;4.63;;;;;;;19.12;42.30;100810.75;5017044;28;20033;-74
2021/01/03 11:01:53;;;;;;;13.32;4.60;;;;;;;19.14;42.51;100804.47;5017688;28;20032;-74
2021/01/03 11:04:22;;;;;;;12.98;4.93;;;;;;;19.19;42.27;100806.94;5029780;28;20102;-71
2021/01/03 11:06:51;;;;;;;14.88;4.90;;;;;;;19.22;42.16;100798.81;5015226;28;20131;-72
2021/01/03 11:09:35;;;;;;;12.88;3.75;;;;;;;19.19;42.34;100809.59;5034087;28;20781;-71
2021/01/03 11:12:07;;;;;;;11.40;4.65;;;;;;;19.11;42.50;100788.69;5013755;28;20041;-71
2021/01/03 11:14:34;;;;;;;15.70;4.63;;;;;;;19.18;41.64;100800.75;5029722;28;20074;-73
2021/01/03 11:17:00;;;;;;;12.90;4.93;;;;;;;19.21;42.06;100794.44;5029197;28;20975;-72
2021/01/03 11:19:25;;;;;;;13.77;5.20;;;;;;;19.21;42.26;100788.28;5017208;28;20045;-72
2021/01/03 11:22:00;;;;;;;9.10;4.78;;;;;;;19.17;39.85;100792.84;5018923;28;20033;-72
2021/01/03 11:24:26;;;;;;;13.25;4.60;;;;;;;19.23;41.44;100778.44;5031853;28;20042;-72
2021/01/03 11:26:53;;;;;;;21.20;6.15;;;;;;;19.24;41.79;100781.06;5019749;28;20040;-73
2021/01/03 11:29:28;;;;;;;17.38;4.60;;;;;;;19.26;42.28;100787.16;5014733;28;20030;-72
2021/01/03 11:31:58;;;;;;;9.40;5.00;;;;;;;19.25;42.27;100779.25;5016989;28;20029;-72
2021/01/03 11:34:31;;;;;;;20.30;6.18;;;;;;;19.22;42.58;100769.63;5033713;28;20100;-73
2021/01/03 11:37:01;;;;;;;14.88;4.68;;;;;;;19.27;42.55;100780.06;5033361;28;20033;-72
2021/01/03 11:39:29;;;;;;;16.95;5.70;;;;;;;19.26;41.36;100770.38;5017153;28;20051;-71
2021/01/03 11:41:58;;;;;;;14.50;5.47;;;;;;;19.30;41.85;100767.50;5000078;28;20041;-73
2021/01/03 11:44:24;;;;;;;13.65;4.95;;;;;;;19.31;42.08;100763.91;5022937;28;20113;-72
2021/01/03 11:47:00;;;;;;;10.40;5.72;;;;;;;19.31;42.94;100763.91;5037094;28;20041;-72
2021/01/03 11:49:26;;;;;;;12.15;5.50;;;;;;;19.32;42.46;100754.16;5016081;28;20037;-72